Flight Track Log - Related Links

Times and Time Zones

All times are in EDT time to prevent confusion due to time zone crossing. See the UAL527 flight status page for this flight to view local times or setup timezone preferences in your user account.

Time Position Orientation Groundspeed Altitude Reporting Facility
EDT Latitude Longitude Course Direction KTS MPH feet Rate Location/Type
Thu 08:01:36 AM 41.9333 -87.9000 90° East 164 189 2,500  Level Chicago TRACON
Thu 08:02:30 AM 41.9000 -87.8333 124° Southeast 207 238 4,000 1,300 Climbing Chicago TRACON
Thu 08:03:36 AM 41.8689 -87.7542 118° Southeast 252 290 5,100 520 Climbing Chicago Center
Thu 08:04:00 AM 41.9431 -87.2768 96° East  Level FlightAware Approximate
Thu 08:04:37 AM 41.8753 -87.6564 85° East 268 308 5,100  Level Chicago Center
Thu 08:05:00 AM 41.9333 -87.1213 90° East  Level FlightAware Approximate
Thu 08:05:39 AM 41.9006 -87.5603 71° East 274 315 8,500  Level Chicago Center
Thu 08:06:00 AM 41.9333 -86.9651 90° East  Level FlightAware Approximate
Thu 08:06:41 AM 41.9125 -87.4269 83° East 300 345 12,300  Level Chicago Center
Thu 08:07:00 AM 41.9333 -86.8089 90° East  Level FlightAware Approximate
Thu 08:07:43 AM 41.9250 -87.2983 83° East 345 397 14,300  Level Chicago Center
Thu 08:08:45 AM 41.9375 -87.1478 84° East 402 463 16,200 2,081 Climbing Chicago Center
Thu 08:09:47 AM 41.9472 -86.9906 85° East 421 484 18,600 2,129 Climbing Chicago Center
Thu 08:10:49 AM 41.9386 -86.8256 94° East 441 507 20,600 2,032 Climbing Chicago Center
Thu 08:11:51 AM 41.9144 -86.6439 100° East 457 526 22,800 1,935 Climbing Chicago Center
Thu 08:12:53 AM 41.8925 -86.4700 100° East 468 539 24,600 1,645 Climbing Chicago Center
Thu 08:13:55 AM 41.8694 -86.2931 100° East 480 552 26,200 1,500 Climbing Chicago Center
Thu 08:14:57 AM 41.8478 -86.1142 99° East 486 559 27,700 1,742 Climbing Chicago Center
Thu 08:15:59 AM 41.8192 -85.8994 100° East 488 562 29,800 1,839 Climbing Chicago Center
Thu 08:17:01 AM 41.7958 -85.7206 100° East 486 559 31,500 1,597 Climbing Chicago Center
Thu 08:18:03 AM 41.7722 -85.5417 100° East 485 558 33,100 1,500 Climbing Chicago Center
Thu 08:19:05 AM 41.7494 -85.3603 99° East 481 554 34,600 1,306 Climbing Chicago Center
Thu 08:20:07 AM 41.7231 -85.1822 101° East 477 549 35,800 1,210 Climbing Chicago Center
Thu 08:21:09 AM 41.6986 -85.0025 100° East 492 566 37,100 871 Climbing Chicago Center
Thu 08:22:11 AM 41.6750 -84.8353 101° East 481 554 37,600 774 Climbing Chicago Center
Thu 08:23:13 AM 41.6603 -84.6472 96° East 486 559 38,700 677 Climbing Chicago Center
Thu 08:24:15 AM 41.6525 -84.4700 93° East 481 554 39,000 145 Climbing Chicago Center
Thu 08:25:17 AM 41.6447 -84.2581 93° East 477 549 39,000  Level Chicago Center
Thu 08:26:19 AM 41.6350 -84.0794 94° East 481 554 39,000  Level Chicago Center
Thu 08:27:21 AM 41.5978 -83.9075 106° East 485 558 39,000  Level Chicago Center
Thu 08:28:23 AM 41.5447 -83.7403 113° Southeast 490 564 39,000  Level Chicago Center
Thu 08:29:32 AM 41.4781 -83.5322 113° Southeast 488 562 39,000  Level Cleveland Center
Thu 08:30:32 AM 41.4258 -83.3692 113° Southeast 478 550 39,000  Level Cleveland Center
Thu 08:31:32 AM 41.3753 -83.2064 112° Southeast 478 550 39,000 -50 Level Cleveland Center
Thu 08:32:32 AM 41.3250 -83.0386 112° Southeast 473 544 38,900  Descending Cleveland Center
Thu 08:33:32 AM 41.2742 -82.8764 113° Southeast 478 550 39,000 50 Climbing Cleveland Center
Thu 08:34:32 AM 41.2231 -82.7172 113° Southeast 478 550 39,000  Level Cleveland Center
Thu 08:35:32 AM 41.1717 -82.5528 112° Southeast 478 550 39,000  Level Cleveland Center
Thu 08:36:32 AM 41.1200 -82.3914 113° Southeast 478 550 39,000  Level Cleveland Center
Thu 08:37:32 AM 41.0725 -82.2358 112° Southeast 478 550 39,000  Level Cleveland Center
Thu 08:38:32 AM 41.0225 -82.0831 113° Southeast 475 547 39,000  Level Cleveland Center
Thu 08:39:32 AM 40.9722 -81.9225 112° Southeast 475 547 39,000 -350 Level Cleveland Center
Thu 08:40:32 AM 40.9178 -81.7675 115° Southeast 470 541 38,300 -500 Descending Cleveland Center
Thu 08:41:32 AM 40.8400 -81.6314 127° Southeast 463 533 38,000 -150 Descending Cleveland Center
Thu 08:42:32 AM 40.7386 -81.5286 142° Southeast 449 517 38,000  Level Cleveland Center
Thu 08:43:32 AM 40.6331 -81.4231 143° Southeast 462 532 38,000  Level Cleveland Center
Thu 08:45:00 AM 40.4913 -81.2850 145° Southeast  Level FlightAware Approximate
Thu 08:45:32 AM 40.4303 -81.2214 145° Southeast 468 539 38,000  Level Cleveland Center
Thu 08:46:32 AM 40.3306 -81.1222 143° Southeast 463 533 37,900 -500 Descending Cleveland Center
Thu 08:47:32 AM 40.2644 -80.9831 122° Southeast 444 511 37,000 -450 Descending Cleveland Center
Thu 08:48:32 AM 40.2128 -80.8061 111° Southeast 449 517 37,000  Level Cleveland Center
Thu 08:49:32 AM 40.1650 -80.6511 112° Southeast 460 529 37,000  Level Cleveland Center
Thu 08:50:32 AM 40.1150 -80.4908 112° Southeast 467 537 37,000  Level Cleveland Center
Thu 08:51:32 AM 40.0647 -80.3364 113° Southeast 467 537 37,000  Level Cleveland Center
Thu 08:52:32 AM 40.0144 -80.1764 112° Southeast 467 537 37,000 -50 Level Cleveland Center
Thu 08:53:32 AM 39.9658 -80.0225 112° Southeast 467 537 36,900 -500 Descending Cleveland Center
Thu 08:54:32 AM 39.9147 -79.8658 113° Southeast 467 537 36,000 -950 Descending Cleveland Center
Thu 08:55:32 AM 39.8658 -79.7122 112° Southeast 467 537 35,000 -1,400 Descending Cleveland Center
Thu 08:56:32 AM 39.8144 -79.5561 113° Southeast 467 537 33,200 -2,300 Descending Cleveland Center
Thu 08:57:32 AM 39.7650 -79.4056 113° Southeast 456 525 30,400 -2,486 Descending Cleveland Center
Thu 08:58:52 AM 39.7089 -79.2303 113° Southeast 445 512 27,400 -2,229 Descending Washington Center
Thu 08:59:52 AM 39.6631 -79.0850 112° Southeast 445 512 25,200 -1,525 Descending Washington Center
Thu 09:00:50 AM 39.6222 -78.9133 107° East 445 512 24,400 -1,664 Descending Washington Center
Thu 09:01:51 AM 39.5886 -78.7611 106° East 445 512 21,900 -2,380 Descending Washington Center
Thu 09:02:51 AM 39.5569 -78.6142 106° East 434 499 19,600 -2,231 Descending Washington Center
Thu 09:03:52 AM 39.5269 -78.4783 106° East 412 474 17,400 -2,269 Descending Washington Center
Thu 09:04:50 AM 39.4947 -78.3428 107° East 399 459 15,100 -1,210 Descending Washington Center
Thu 09:05:51 AM 39.4664 -78.2100 105° East 394 453 15,000 -49 Descending Washington Center
Thu 09:06:52 AM 39.4547 -78.0725 96° East 382 440 15,000  Level Washington Center
Thu 09:07:49 AM 39.4533 -77.9325 91° East 382 440 15,000 -610 Level Washington Center
Thu 09:08:50 AM 39.4517 -77.7981 91° East 382 440 13,800 -1,770 Descending Washington Center
Thu 09:09:51 AM 39.4500 -77.6636 91° East 382 440 11,400 -1,377 Descending Washington Center
Thu 09:10:52 AM 39.4481 -77.5292 91° East 377 434 11,000 -200 Descending Washington Center
Thu 09:11:51 AM 39.4458 -77.4003 91° East 366 421 11,000  Level Washington Center
Thu 09:12:34 AM 39.4500 -77.3000 87° East 369 425 11,000 -55 Level Potomac TRACON
Thu 09:13:40 AM 39.4667 -77.1667 81° East 341 392 10,900 -550 Descending Potomac TRACON
Thu 09:14:34 AM 39.4833 -77.0667 78° East 300 345 9,900 -1,500 Descending Potomac TRACON
Thu 09:15:28 AM 39.5167 -76.9667 67° East 299 344 8,200 -1,686 Descending Potomac TRACON
Thu 09:16:35 AM 39.5333 -76.8667 78° East 297 342 6,500 -1,140 Descending Potomac TRACON
Thu 09:17:29 AM 39.5667 -76.7667 67° East 305 351 5,900 -789 Descending Potomac TRACON
Thu 09:18:29 AM 39.5167 -76.7000 134° Southeast 282 325 5,000 -474 Descending Potomac TRACON
Thu 09:19:23 AM 39.4500 -76.6500 150° Southeast 282 325 5,000 -158 Level Potomac TRACON
Thu 09:20:23 AM 39.4000 -76.5833 134° Southeast 260 299 4,700 -526 Descending Potomac TRACON
Thu 09:21:17 AM 39.3500 -76.5333 142° Southeast 251 289 4,000 -579 Descending Potomac TRACON
Thu 09:22:17 AM 39.2833 -76.5000 159° South 252 290 3,600 -650 Descending Potomac TRACON
Thu 09:23:17 AM 39.2167 -76.5000 180° South 238 274 2,700 -800 Descending Potomac TRACON
Thu 09:24:17 AM 39.1667 -76.5333 207° Southwest 229 264 2,000 -700 Descending Potomac TRACON

Login

Don't have an account? Register now (free) for customized features, flight alerts, and more!